sensor_id;sensor_type;location;lat;lon;timestamp;P1;durP1;ratioP1;P2;durP2;ratioP2
31910;SDS011;18457;52.432;16.914;2023-06-10T00:01:46;20.30;;;12.20;;
31910;SDS011;18457;52.432;16.914;2023-06-10T00:04:18;20.30;;;12.00;;
31910;SDS011;18457;52.432;16.914;2023-06-10T00:06:50;14.20;;;12.00;;
31910;SDS011;18457;52.432;16.914;2023-06-10T00:11:53;14.70;;;11.60;;
31910;SDS011;18457;52.432;16.914;2023-06-10T00:14:28;16.20;;;12.60;;
31910;SDS011;18457;52.432;16.914;2023-06-10T00:17:00;26.60;;;12.50;;
31910;SDS011;18457;52.432;16.914;2023-06-10T00:19:32;17.40;;;11.90;;
31910;SDS011;18457;52.432;16.914;2023-06-10T00:22:04;18.80;;;12.70;;
31910;SDS011;18457;52.432;16.914;2023-06-10T00:24:36;18.00;;;12.00;;
31910;SDS011;18457;52.432;16.914;2023-06-10T00:27:08;26.40;;;12.10;;
31910;SDS011;18457;52.432;16.914;2023-06-10T00:29:40;15.90;;;12.50;;
31910;SDS011;18457;52.432;16.914;2023-06-10T00:32:12;16.10;;;12.30;;
31910;SDS011;18457;52.432;16.914;2023-06-10T00:34:43;16.10;;;11.50;;
31910;SDS011;18457;52.432;16.914;2023-06-10T00:37:15;20.10;;;11.50;;
31910;SDS011;18457;52.432;16.914;2023-06-10T00:39:47;12.20;;;11.00;;
31910;SDS011;18457;52.432;16.914;2023-06-10T00:42:18;16.50;;;10.90;;
31910;SDS011;18457;52.432;16.914;2023-06-10T00:44:51;20.10;;;11.70;;
31910;SDS011;18457;52.432;16.914;2023-06-10T00:47:24;17.30;;;11.40;;
31910;SDS011;18457;52.432;16.914;2023-06-10T00:49:57;17.30;;;11.60;;
31910;SDS011;18457;52.432;16.914;2023-06-10T00:52:29;20.20;;;10.60;;
31910;SDS011;18457;52.432;16.914;2023-06-10T00:57:32;11.80;;;10.60;;
31910;SDS011;18457;52.432;16.914;2023-06-10T01:00:05;15.30;;;10.10;;
31910;SDS011;18457;52.432;16.914;2023-06-10T01:02:39;17.10;;;10.60;;
31910;SDS011;18457;52.432;16.914;2023-06-10T01:05:11;14.10;;;10.50;;
31910;SDS011;18457;52.432;16.914;2023-06-10T01:07:45;16.30;;;10.30;;
31910;SDS011;18457;52.432;16.914;2023-06-10T01:10:29;18.80;;;10.60;;
31910;SDS011;18457;52.432;16.914;2023-06-10T01:13:09;13.50;;;10.10;;
31910;SDS011;18457;52.432;16.914;2023-06-10T01:15:41;13.80;;;10.00;;
31910;SDS011;18457;52.432;16.914;2023-06-10T01:18:14;18.90;;;9.70;;
31910;SDS011;18457;52.432;16.914;2023-06-10T01:20:46;19.80;;;10.50;;
31910;SDS011;18457;52.432;16.914;2023-06-10T01:23:20;14.80;;;10.30;;
31910;SDS011;18457;52.432;16.914;2023-06-10T01:25:53;12.90;;;9.80;;
31910;SDS011;18457;52.432;16.914;2023-06-10T01:28:31;14.20;;;10.80;;
31910;SDS011;18457;52.432;16.914;2023-06-10T01:31:08;13.30;;;10.20;;
31910;SDS011;18457;52.432;16.914;2023-06-10T01:33:47;15.70;;;9.90;;
31910;SDS011;18457;52.432;16.914;2023-06-10T01:36:21;16.70;;;10.30;;
31910;SDS011;18457;52.432;16.914;2023-06-10T01:38:54;17.00;;;10.00;;
31910;SDS011;18457;52.432;16.914;2023-06-10T01:41:28;15.50;;;9.80;;
31910;SDS011;18457;52.432;16.914;2023-06-10T01:44:00;16.20;;;10.40;;
31910;SDS011;18457;52.432;16.914;2023-06-10T01:46:32;16.50;;;10.00;;
31910;SDS011;18457;52.432;16.914;2023-06-10T01:49:04;13.90;;;9.80;;
31910;SDS011;18457;52.432;16.914;2023-06-10T01:51:36;15.20;;;10.00;;
31910;SDS011;18457;52.432;16.914;2023-06-10T01:54:08;20.10;;;11.10;;
31910;SDS011;18457;52.432;16.914;2023-06-10T01:56:41;13.60;;;10.20;;
31910;SDS011;18457;52.432;16.914;2023-06-10T01:59:13;13.50;;;9.80;;
31910;SDS011;18457;52.432;16.914;2023-06-10T02:01:45;18.70;;;10.90;;
31910;SDS011;18457;52.432;16.914;2023-06-10T02:04:17;14.80;;;10.20;;
31910;SDS011;18457;52.432;16.914;2023-06-10T02:06:48;16.10;;;9.90;;
31910;SDS011;18457;52.432;16.914;2023-06-10T02:09:20;12.10;;;9.60;;
31910;SDS011;18457;52.432;16.914;2023-06-10T02:11:53;16.40;;;9.70;;
31910;SDS011;18457;52.432;16.914;2023-06-10T02:14:27;17.80;;;11.20;;
31910;SDS011;18457;52.432;16.914;2023-06-10T02:16:59;17.10;;;10.20;;
31910;SDS011;18457;52.432;16.914;2023-06-10T02:19:31;15.50;;;10.30;;
31910;SDS011;18457;52.432;16.914;2023-06-10T02:22:05;15.60;;;10.10;;
31910;SDS011;18457;52.432;16.914;2023-06-10T02:24:37;13.20;;;10.40;;
31910;SDS011;18457;52.432;16.914;2023-06-10T02:27:09;14.40;;;10.30;;
31910;SDS011;18457;52.432;16.914;2023-06-10T02:29:40;16.90;;;10.20;;
31910;SDS011;18457;52.432;16.914;2023-06-10T02:32:12;14.30;;;9.90;;
31910;SDS011;18457;52.432;16.914;2023-06-10T02:34:44;16.50;;;12.00;;
31910;SDS011;18457;52.432;16.914;2023-06-10T02:37:18;15.70;;;10.90;;
31910;SDS011;18457;52.432;16.914;2023-06-10T02:39:50;13.30;;;9.80;;
31910;SDS011;18457;52.432;16.914;2023-06-10T02:42:22;16.10;;;10.60;;
31910;SDS011;18457;52.432;16.914;2023-06-10T02:44:55;14.90;;;10.40;;
31910;SDS011;18457;52.432;16.914;2023-06-10T02:47:34;19.50;;;9.70;;
31910;SDS011;18457;52.432;16.914;2023-06-10T02:50:08;17.30;;;9.80;;
31910;SDS011;18457;52.432;16.914;2023-06-10T02:52:48;15.40;;;9.80;;
31910;SDS011;18457;52.432;16.914;2023-06-10T02:55:20;15.70;;;10.70;;
31910;SDS011;18457;52.432;16.914;2023-06-10T02:57:58;17.20;;;9.80;;
31910;SDS011;18457;52.432;16.914;2023-06-10T03:00:30;13.40;;;9.80;;
31910;SDS011;18457;52.432;16.914;2023-06-10T03:03:02;13.80;;;9.90;;
31910;SDS011;18457;52.432;16.914;2023-06-10T03:05:38;12.80;;;9.70;;
31910;SDS011;18457;52.432;16.914;2023-06-10T03:08:11;14.10;;;10.00;;
31910;SDS011;18457;52.432;16.914;2023-06-10T03:10:43;14.40;;;9.60;;
31910;SDS011;18457;52.432;16.914;2023-06-10T03:13:17;15.90;;;10.30;;
31910;SDS011;18457;52.432;16.914;2023-06-10T03:15:50;17.10;;;10.20;;
31910;SDS011;18457;52.432;16.914;2023-06-10T03:20:55;14.80;;;10.00;;
31910;SDS011;18457;52.432;16.914;2023-06-10T03:23:28;14.90;;;9.90;;
31910;SDS011;18457;52.432;16.914;2023-06-10T03:26:00;18.50;;;10.30;;
31910;SDS011;18457;52.432;16.914;2023-06-10T03:28:34;12.80;;;9.90;;
31910;SDS011;18457;52.432;16.914;2023-06-10T03:31:06;16.40;;;10.00;;
31910;SDS011;18457;52.432;16.914;2023-06-10T03:33:38;14.90;;;10.10;;
31910;SDS011;18457;52.432;16.914;2023-06-10T03:36:10;15.70;;;9.30;;
31910;SDS011;18457;52.432;16.914;2023-06-10T03:38:42;17.70;;;10.70;;
31910;SDS011;18457;52.432;16.914;2023-06-10T03:41:14;15.50;;;9.80;;
31910;SDS011;18457;52.432;16.914;2023-06-10T03:43:46;15.70;;;9.10;;
31910;SDS011;18457;52.432;16.914;2023-06-10T03:46:18;19.10;;;9.60;;
31910;SDS011;18457;52.432;16.914;2023-06-10T03:48:50;14.50;;;9.00;;
31910;SDS011;18457;52.432;16.914;2023-06-10T03:51:22;14.30;;;9.00;;
31910;SDS011;18457;52.432;16.914;2023-06-10T03:53:53;13.30;;;8.70;;
31910;SDS011;18457;52.432;16.914;2023-06-10T03:56:25;14.90;;;9.40;;
31910;SDS011;18457;52.432;16.914;2023-06-10T03:58:57;13.50;;;8.30;;
31910;SDS011;18457;52.432;16.914;2023-06-10T04:01:29;13.50;;;9.30;;
31910;SDS011;18457;52.432;16.914;2023-06-10T04:04:02;15.20;;;9.20;;
31910;SDS011;18457;52.432;16.914;2023-06-10T04:06:35;13.30;;;9.40;;
31910;SDS011;18457;52.432;16.914;2023-06-10T04:09:07;14.60;;;9.50;;
31910;SDS011;18457;52.432;16.914;2023-06-10T04:11:41;13.30;;;10.40;;
31910;SDS011;18457;52.432;16.914;2023-06-10T04:14:13;13.70;;;10.00;;
31910;SDS011;18457;52.432;16.914;2023-06-10T04:16:45;16.00;;;9.60;;
31910;SDS011;18457;52.432;16.914;2023-06-10T04:19:17;21.20;;;11.40;;
31910;SDS011;18457;52.432;16.914;2023-06-10T04:24:22;14.80;;;9.70;;
31910;SDS011;18457;52.432;16.914;2023-06-10T04:26:54;16.10;;;10.20;;
31910;SDS011;18457;52.432;16.914;2023-06-10T04:29:26;17.90;;;9.90;;
31910;SDS011;18457;52.432;16.914;2023-06-10T04:31:58;21.00;;;10.80;;
31910;SDS011;18457;52.432;16.914;2023-06-10T04:34:32;14.50;;;9.70;;
31910;SDS011;18457;52.432;16.914;2023-06-10T04:37:05;16.40;;;10.10;;
31910;SDS011;18457;52.432;16.914;2023-06-10T04:39:37;16.80;;;9.40;;
31910;SDS011;18457;52.432;16.914;2023-06-10T04:42:09;17.40;;;9.60;;
31910;SDS011;18457;52.432;16.914;2023-06-10T04:44:41;14.00;;;8.60;;
31910;SDS011;18457;52.432;16.914;2023-06-10T04:47:13;17.70;;;9.70;;
31910;SDS011;18457;52.432;16.914;2023-06-10T04:49:46;13.40;;;9.40;;
31910;SDS011;18457;52.432;16.914;2023-06-10T04:52:18;14.70;;;9.20;;
31910;SDS011;18457;52.432;16.914;2023-06-10T04:54:50;17.80;;;8.60;;
31910;SDS011;18457;52.432;16.914;2023-06-10T04:57:22;14.60;;;9.10;;
31910;SDS011;18457;52.432;16.914;2023-06-10T04:59:55;14.70;;;8.80;;
31910;SDS011;18457;52.432;16.914;2023-06-10T05:02:27;12.10;;;9.40;;
31910;SDS011;18457;52.432;16.914;2023-06-10T05:04:58;14.70;;;8.30;;
31910;SDS011;18457;52.432;16.914;2023-06-10T05:07:30;12.90;;;8.50;;
31910;SDS011;18457;52.432;16.914;2023-06-10T05:10:02;12.70;;;7.90;;
31910;SDS011;18457;52.432;16.914;2023-06-10T05:12:35;16.50;;;8.80;;
31910;SDS011;18457;52.432;16.914;2023-06-10T05:15:09;20.90;;;8.40;;
31910;SDS011;18457;52.432;16.914;2023-06-10T05:17:41;15.70;;;8.30;;
31910;SDS011;18457;52.432;16.914;2023-06-10T05:20:13;16.50;;;9.00;;
31910;SDS011;18457;52.432;16.914;2023-06-10T05:22:45;22.20;;;8.50;;
31910;SDS011;18457;52.432;16.914;2023-06-10T05:25:17;14.80;;;8.40;;
31910;SDS011;18457;52.432;16.914;2023-06-10T05:27:49;19.50;;;9.00;;
31910;SDS011;18457;52.432;16.914;2023-06-10T05:30:21;11.90;;;7.70;;
31910;SDS011;18457;52.432;16.914;2023-06-10T05:32:53;17.40;;;7.20;;
31910;SDS011;18457;52.432;16.914;2023-06-10T05:35:26;14.30;;;7.50;;
31910;SDS011;18457;52.432;16.914;2023-06-10T05:37:58;22.40;;;8.00;;
31910;SDS011;18457;52.432;16.914;2023-06-10T05:40:32;12.60;;;7.70;;
31910;SDS011;18457;52.432;16.914;2023-06-10T05:43:03;11.70;;;7.60;;
31910;SDS011;18457;52.432;16.914;2023-06-10T05:45:35;18.40;;;7.50;;
31910;SDS011;18457;52.432;16.914;2023-06-10T05:48:09;14.60;;;7.70;;
31910;SDS011;18457;52.432;16.914;2023-06-10T05:50:41;16.00;;;7.50;;
31910;SDS011;18457;52.432;16.914;2023-06-10T05:53:17;18.70;;;7.40;;
31910;SDS011;18457;52.432;16.914;2023-06-10T05:55:49;15.70;;;6.80;;
31910;SDS011;18457;52.432;16.914;2023-06-10T05:58:21;15.00;;;8.00;;
31910;SDS011;18457;52.432;16.914;2023-06-10T06:00:53;23.60;;;7.60;;
31910;SDS011;18457;52.432;16.914;2023-06-10T06:03:25;9.20;;;7.00;;
31910;SDS011;18457;52.432;16.914;2023-06-10T06:05:58;18.80;;;8.00;;
31910;SDS011;18457;52.432;16.914;2023-06-10T06:08:29;19.50;;;8.20;;
31910;SDS011;18457;52.432;16.914;2023-06-10T06:11:01;12.80;;;7.70;;
31910;SDS011;18457;52.432;16.914;2023-06-10T06:13:33;15.20;;;7.60;;
31910;SDS011;18457;52.432;16.914;2023-06-10T06:16:05;16.00;;;8.10;;
31910;SDS011;18457;52.432;16.914;2023-06-10T06:18:37;12.40;;;7.40;;
31910;SDS011;18457;52.432;16.914;2023-06-10T06:21:09;11.50;;;7.20;;
31910;SDS011;18457;52.432;16.914;2023-06-10T06:23:41;11.00;;;7.90;;
31910;SDS011;18457;52.432;16.914;2023-06-10T06:26:13;16.00;;;7.20;;
31910;SDS011;18457;52.432;16.914;2023-06-10T06:28:44;13.50;;;8.20;;
31910;SDS011;18457;52.432;16.914;2023-06-10T06:31:16;17.40;;;8.40;;
31910;SDS011;18457;52.432;16.914;2023-06-10T06:33:48;16.10;;;8.30;;
31910;SDS011;18457;52.432;16.914;2023-06-10T06:36:20;12.80;;;7.00;;
31910;SDS011;18457;52.432;16.914;2023-06-10T06:38:51;10.70;;;6.90;;
31910;SDS011;18457;52.432;16.914;2023-06-10T06:41:25;11.30;;;7.20;;
31910;SDS011;18457;52.432;16.914;2023-06-10T06:43:58;13.60;;;7.50;;
31910;SDS011;18457;52.432;16.914;2023-06-10T06:46:38;18.00;;;7.10;;
31910;SDS011;18457;52.432;16.914;2023-06-10T06:49:09;13.70;;;7.20;;
31910;SDS011;18457;52.432;16.914;2023-06-10T06:51:42;16.70;;;7.50;;
31910;SDS011;18457;52.432;16.914;2023-06-10T06:54:13;13.20;;;7.70;;
31910;SDS011;18457;52.432;16.914;2023-06-10T06:56:45;12.00;;;7.20;;
31910;SDS011;18457;52.432;16.914;2023-06-10T06:59:17;17.80;;;7.60;;
31910;SDS011;18457;52.432;16.914;2023-06-10T07:01:49;14.00;;;7.50;;
31910;SDS011;18457;52.432;16.914;2023-06-10T07:04:23;11.50;;;7.40;;
31910;SDS011;18457;52.432;16.914;2023-06-10T07:06:55;12.00;;;7.40;;
31910;SDS011;18457;52.432;16.914;2023-06-10T07:09:27;20.50;;;7.70;;
31910;SDS011;18457;52.432;16.914;2023-06-10T07:11:59;11.50;;;7.20;;
31910;SDS011;18457;52.432;16.914;2023-06-10T07:14:31;16.00;;;7.30;;
31910;SDS011;18457;52.432;16.914;2023-06-10T07:17:03;22.10;;;7.40;;
31910;SDS011;18457;52.432;16.914;2023-06-10T07:19:35;16.10;;;7.00;;
31910;SDS011;18457;52.432;16.914;2023-06-10T07:22:06;16.90;;;7.40;;
31910;SDS011;18457;52.432;16.914;2023-06-10T07:24:38;11.10;;;6.30;;
31910;SDS011;18457;52.432;16.914;2023-06-10T07:27:10;11.10;;;7.80;;
31910;SDS011;18457;52.432;16.914;2023-06-10T07:29:42;14.50;;;7.80;;
31910;SDS011;18457;52.432;16.914;2023-06-10T07:32:13;15.60;;;7.80;;
31910;SDS011;18457;52.432;16.914;2023-06-10T07:34:47;13.00;;;7.90;;
31910;SDS011;18457;52.432;16.914;2023-06-10T07:37:19;14.00;;;7.40;;
31910;SDS011;18457;52.432;16.914;2023-06-10T07:39:51;11.20;;;7.10;;
31910;SDS011;18457;52.432;16.914;2023-06-10T07:42:22;14.00;;;7.00;;
31910;SDS011;18457;52.432;16.914;2023-06-10T07:44:54;13.00;;;7.80;;
31910;SDS011;18457;52.432;16.914;2023-06-10T07:47:26;26.20;;;8.60;;
31910;SDS011;18457;52.432;16.914;2023-06-10T07:49:58;14.20;;;7.10;;
31910;SDS011;18457;52.432;16.914;2023-06-10T07:52:29;15.90;;;7.20;;
31910;SDS011;18457;52.432;16.914;2023-06-10T07:55:01;11.30;;;7.50;;
31910;SDS011;18457;52.432;16.914;2023-06-10T07:57:34;17.70;;;7.90;;
31910;SDS011;18457;52.432;16.914;2023-06-10T08:00:08;17.00;;;7.60;;
31910;SDS011;18457;52.432;16.914;2023-06-10T08:02:41;12.00;;;7.00;;
31910;SDS011;18457;52.432;16.914;2023-06-10T08:05:13;23.40;;;6.70;;
31910;SDS011;18457;52.432;16.914;2023-06-10T08:07:45;16.30;;;8.30;;
31910;SDS011;18457;52.432;16.914;2023-06-10T08:10:16;10.70;;;6.20;;
31910;SDS011;18457;52.432;16.914;2023-06-10T08:12:48;10.50;;;6.30;;
31910;SDS011;18457;52.432;16.914;2023-06-10T08:15:20;15.00;;;6.70;;
31910;SDS011;18457;52.432;16.914;2023-06-10T08:17:52;11.50;;;6.20;;
31910;SDS011;18457;52.432;16.914;2023-06-10T08:20:25;7.60;;;6.60;;
31910;SDS011;18457;52.432;16.914;2023-06-10T08:22:57;11.70;;;7.30;;
31910;SDS011;18457;52.432;16.914;2023-06-10T08:25:29;12.00;;;6.90;;
31910;SDS011;18457;52.432;16.914;2023-06-10T08:28:00;11.50;;;6.60;;
31910;SDS011;18457;52.432;16.914;2023-06-10T08:30:32;11.70;;;6.00;;
31910;SDS011;18457;52.432;16.914;2023-06-10T08:33:04;13.00;;;6.50;;
31910;SDS011;18457;52.432;16.914;2023-06-10T08:35:37;42.90;;;8.60;;
31910;SDS011;18457;52.432;16.914;2023-06-10T08:38:08;10.40;;;6.10;;
31910;SDS011;18457;52.432;16.914;2023-06-10T08:40:40;14.50;;;5.70;;
31910;SDS011;18457;52.432;16.914;2023-06-10T08:43:15;11.30;;;5.70;;
31910;SDS011;18457;52.432;16.914;2023-06-10T08:45:52;12.00;;;6.00;;
31910;SDS011;18457;52.432;16.914;2023-06-10T08:48:30;13.40;;;6.30;;
31910;SDS011;18457;52.432;16.914;2023-06-10T08:51:04;15.80;;;6.90;;
31910;SDS011;18457;52.432;16.914;2023-06-10T08:53:38;9.40;;;5.70;;
31910;SDS011;18457;52.432;16.914;2023-06-10T08:56:18;15.00;;;6.70;;
31910;SDS011;18457;52.432;16.914;2023-06-10T08:58:51;15.10;;;5.90;;
31910;SDS011;18457;52.432;16.914;2023-06-10T09:01:25;8.90;;;6.20;;
31910;SDS011;18457;52.432;16.914;2023-06-10T09:03:57;13.70;;;6.30;;
31910;SDS011;18457;52.432;16.914;2023-06-10T09:06:32;20.10;;;6.50;;
31910;SDS011;18457;52.432;16.914;2023-06-10T09:09:05;33.80;;;6.60;;
31910;SDS011;18457;52.432;16.914;2023-06-10T09:11:38;11.40;;;6.30;;
31910;SDS011;18457;52.432;16.914;2023-06-10T09:14:10;13.80;;;7.30;;
31910;SDS011;18457;52.432;16.914;2023-06-10T09:16:42;12.40;;;6.10;;
31910;SDS011;18457;52.432;16.914;2023-06-10T09:19:17;15.70;;;6.70;;
31910;SDS011;18457;52.432;16.914;2023-06-10T09:21:50;14.10;;;6.20;;
31910;SDS011;18457;52.432;16.914;2023-06-10T09:24:22;10.00;;;6.10;;
31910;SDS011;18457;52.432;16.914;2023-06-10T09:27:03;12.20;;;6.30;;
31910;SDS011;18457;52.432;16.914;2023-06-10T09:29:46;10.00;;;5.90;;
31910;SDS011;18457;52.432;16.914;2023-06-10T09:32:21;10.90;;;5.70;;
31910;SDS011;18457;52.432;16.914;2023-06-10T09:34:54;9.90;;;5.80;;
31910;SDS011;18457;52.432;16.914;2023-06-10T09:37:25;10.30;;;5.50;;
31910;SDS011;18457;52.432;16.914;2023-06-10T09:40:04;13.50;;;5.40;;
31910;SDS011;18457;52.432;16.914;2023-06-10T09:42:39;11.70;;;5.80;;
31910;SDS011;18457;52.432;16.914;2023-06-10T09:45:11;11.80;;;5.50;;
31910;SDS011;18457;52.432;16.914;2023-06-10T09:47:45;8.10;;;5.80;;
31910;SDS011;18457;52.432;16.914;2023-06-10T09:50:18;9.70;;;6.00;;
31910;SDS011;18457;52.432;16.914;2023-06-10T09:52:50;12.40;;;6.80;;
31910;SDS011;18457;52.432;16.914;2023-06-10T09:55:23;9.70;;;6.50;;
31910;SDS011;18457;52.432;16.914;2023-06-10T09:57:55;12.10;;;5.80;;
31910;SDS011;18457;52.432;16.914;2023-06-10T10:00:31;8.40;;;5.60;;
31910;SDS011;18457;52.432;16.914;2023-06-10T10:03:04;7.40;;;6.30;;
31910;SDS011;18457;52.432;16.914;2023-06-10T10:05:36;10.90;;;6.40;;
31910;SDS011;18457;52.432;16.914;2023-06-10T10:08:08;15.30;;;6.40;;
31910;SDS011;18457;52.432;16.914;2023-06-10T10:10:40;15.10;;;6.60;;
31910;SDS011;18457;52.432;16.914;2023-06-10T10:13:12;12.50;;;6.50;;
31910;SDS011;18457;52.432;16.914;2023-06-10T10:15:44;16.60;;;6.40;;
31910;SDS011;18457;52.432;16.914;2023-06-10T10:18:17;11.90;;;6.50;;
31910;SDS011;18457;52.432;16.914;2023-06-10T10:21:02;19.30;;;6.30;;
31910;SDS011;18457;52.432;16.914;2023-06-10T10:23:40;12.30;;;6.40;;
31910;SDS011;18457;52.432;16.914;2023-06-10T10:26:23;10.20;;;5.90;;
31910;SDS011;18457;52.432;16.914;2023-06-10T10:29:01;12.50;;;5.20;;
31910;SDS011;18457;52.432;16.914;2023-06-10T10:31:40;11.80;;;5.50;;
31910;SDS011;18457;52.432;16.914;2023-06-10T10:34:15;10.10;;;6.10;;
31910;SDS011;18457;52.432;16.914;2023-06-10T10:36:49;13.70;;;6.50;;
31910;SDS011;18457;52.432;16.914;2023-06-10T10:41:52;64.30;;;8.80;;
31910;SDS011;18457;52.432;16.914;2023-06-10T10:44:25;12.10;;;5.40;;
31910;SDS011;18457;52.432;16.914;2023-06-10T10:46:58;11.10;;;6.30;;
31910;SDS011;18457;52.432;16.914;2023-06-10T10:49:34;12.00;;;6.00;;
31910;SDS011;18457;52.432;16.914;2023-06-10T10:52:10;11.20;;;5.50;;
31910;SDS011;18457;52.432;16.914;2023-06-10T10:54:44;20.20;;;6.20;;
31910;SDS011;18457;52.432;16.914;2023-06-10T10:57:18;11.50;;;5.90;;
31910;SDS011;18457;52.432;16.914;2023-06-10T10:59:55;15.80;;;6.40;;
31910;SDS011;18457;52.432;16.914;2023-06-10T11:02:37;7.60;;;6.50;;
31910;SDS011;18457;52.432;16.914;2023-06-10T11:05:15;15.00;;;6.50;;
31910;SDS011;18457;52.432;16.914;2023-06-10T11:07:54;8.80;;;6.30;;
31910;SDS011;18457;52.432;16.914;2023-06-10T11:10:32;17.50;;;6.40;;
31910;SDS011;18457;52.432;16.914;2023-06-10T11:13:09;19.10;;;6.20;;
31910;SDS011;18457;52.432;16.914;2023-06-10T11:15:44;13.90;;;5.70;;
31910;SDS011;18457;52.432;16.914;2023-06-10T11:18:22;11.60;;;6.00;;
31910;SDS011;18457;52.432;16.914;2023-06-10T11:20:56;12.40;;;5.50;;
31910;SDS011;18457;52.432;16.914;2023-06-10T11:23:37;13.20;;;6.00;;
31910;SDS011;18457;52.432;16.914;2023-06-10T11:26:20;8.70;;;6.20;;
31910;SDS011;18457;52.432;16.914;2023-06-10T11:29:02;100.10;;;12.50;;
31910;SDS011;18457;52.432;16.914;2023-06-10T11:31:40;30.30;;;6.40;;
31910;SDS011;18457;52.432;16.914;2023-06-10T11:34:15;11.90;;;6.20;;
31910;SDS011;18457;52.432;16.914;2023-06-10T11:36:52;8.30;;;6.10;;
31910;SDS011;18457;52.432;16.914;2023-06-10T11:39:24;8.80;;;6.00;;
31910;SDS011;18457;52.432;16.914;2023-06-10T11:41:56;13.80;;;6.90;;
31910;SDS011;18457;52.432;16.914;2023-06-10T11:44:30;10.00;;;6.00;;
31910;SDS011;18457;52.432;16.914;2023-06-10T11:47:04;9.30;;;6.10;;
31910;SDS011;18457;52.432;16.914;2023-06-10T11:49:39;12.70;;;5.90;;
31910;SDS011;18457;52.432;16.914;2023-06-10T11:52:14;10.90;;;5.80;;
31910;SDS011;18457;52.432;16.914;2023-06-10T11:54:46;18.90;;;6.70;;
31910;SDS011;18457;52.432;16.914;2023-06-10T11:57:25;11.60;;;5.70;;
31910;SDS011;18457;52.432;16.914;2023-06-10T11:59:58;10.80;;;5.90;;
31910;SDS011;18457;52.432;16.914;2023-06-10T12:02:39;9.30;;;6.10;;
31910;SDS011;18457;52.432;16.914;2023-06-10T12:05:12;10.80;;;5.50;;
31910;SDS011;18457;52.432;16.914;2023-06-10T12:07:47;11.10;;;5.80;;
31910;SDS011;18457;52.432;16.914;2023-06-10T12:10:19;8.60;;;5.80;;
31910;SDS011;18457;52.432;16.914;2023-06-10T12:12:56;8.20;;;5.60;;
31910;SDS011;18457;52.432;16.914;2023-06-10T12:15:28;13.70;;;6.10;;
31910;SDS011;18457;52.432;16.914;2023-06-10T12:18:01;15.30;;;5.90;;
31910;SDS011;18457;52.432;16.914;2023-06-10T12:23:09;7.70;;;5.30;;
31910;SDS011;18457;52.432;16.914;2023-06-10T12:25:50;9.00;;;5.90;;
31910;SDS011;18457;52.432;16.914;2023-06-10T12:28:23;10.20;;;5.70;;
31910;SDS011;18457;52.432;16.914;2023-06-10T12:31:07;8.60;;;5.70;;
31910;SDS011;18457;52.432;16.914;2023-06-10T12:33:38;7.20;;;5.60;;
31910;SDS011;18457;52.432;16.914;2023-06-10T12:36:16;9.50;;;5.70;;
31910;SDS011;18457;52.432;16.914;2023-06-10T12:38:50;13.50;;;6.30;;
31910;SDS011;18457;52.432;16.914;2023-06-10T12:41:22;20.30;;;5.70;;
31910;SDS011;18457;52.432;16.914;2023-06-10T12:43:54;9.80;;;5.90;;
31910;SDS011;18457;52.432;16.914;2023-06-10T12:46:36;9.30;;;5.80;;
31910;SDS011;18457;52.432;16.914;2023-06-10T12:49:08;12.90;;;5.50;;
31910;SDS011;18457;52.432;16.914;2023-06-10T12:51:50;13.50;;;5.70;;
31910;SDS011;18457;52.432;16.914;2023-06-10T12:56:53;9.70;;;5.20;;
31910;SDS011;18457;52.432;16.914;2023-06-10T12:59:24;7.10;;;5.70;;
31910;SDS011;18457;52.432;16.914;2023-06-10T13:01:56;9.60;;;5.60;;
31910;SDS011;18457;52.432;16.914;2023-06-10T13:06:59;8.70;;;4.80;;
31910;SDS011;18457;52.432;16.914;2023-06-10T13:09:31;7.30;;;5.40;;
31910;SDS011;18457;52.432;16.914;2023-06-10T13:12:03;24.70;;;6.70;;
31910;SDS011;18457;52.432;16.914;2023-06-10T13:14:44;7.60;;;5.80;;
31910;SDS011;18457;52.432;16.914;2023-06-10T13:17:16;12.40;;;4.70;;
31910;SDS011;18457;52.432;16.914;2023-06-10T13:19:49;6.30;;;4.60;;
31910;SDS011;18457;52.432;16.914;2023-06-10T13:22:21;11.20;;;5.40;;
31910;SDS011;18457;52.432;16.914;2023-06-10T13:24:53;12.40;;;5.10;;
31910;SDS011;18457;52.432;16.914;2023-06-10T13:27:25;11.40;;;5.40;;
31910;SDS011;18457;52.432;16.914;2023-06-10T13:29:57;13.70;;;5.50;;
31910;SDS011;18457;52.432;16.914;2023-06-10T13:32:29;11.50;;;5.00;;
31910;SDS011;18457;52.432;16.914;2023-06-10T13:35:01;11.30;;;5.10;;
31910;SDS011;18457;52.432;16.914;2023-06-10T13:37:34;7.30;;;5.70;;
31910;SDS011;18457;52.432;16.914;2023-06-10T13:40:07;13.70;;;6.10;;
31910;SDS011;18457;52.432;16.914;2023-06-10T13:42:40;19.80;;;5.60;;
31910;SDS011;18457;52.432;16.914;2023-06-10T13:45:11;13.30;;;5.60;;
31910;SDS011;18457;52.432;16.914;2023-06-10T13:47:43;10.10;;;4.80;;
31910;SDS011;18457;52.432;16.914;2023-06-10T13:50:15;7.50;;;5.00;;
31910;SDS011;18457;52.432;16.914;2023-06-10T13:52:47;14.50;;;6.60;;
31910;SDS011;18457;52.432;16.914;2023-06-10T13:55:19;9.00;;;5.00;;
31910;SDS011;18457;52.432;16.914;2023-06-10T13:57:53;10.80;;;5.80;;
31910;SDS011;18457;52.432;16.914;2023-06-10T14:00:25;12.90;;;5.20;;
31910;SDS011;18457;52.432;16.914;2023-06-10T14:02:58;10.50;;;4.90;;
31910;SDS011;18457;52.432;16.914;2023-06-10T14:05:30;12.10;;;5.10;;
31910;SDS011;18457;52.432;16.914;2023-06-10T14:08:02;8.20;;;5.00;;
31910;SDS011;18457;52.432;16.914;2023-06-10T14:10:35;10.60;;;4.50;;
31910;SDS011;18457;52.432;16.914;2023-06-10T14:13:06;12.70;;;5.30;;
31910;SDS011;18457;52.432;16.914;2023-06-10T14:15:38;13.40;;;5.60;;
31910;SDS011;18457;52.432;16.914;2023-06-10T14:18:10;17.40;;;5.50;;
31910;SDS011;18457;52.432;16.914;2023-06-10T14:20:42;13.10;;;5.50;;
31910;SDS011;18457;52.432;16.914;2023-06-10T14:23:14;9.20;;;4.10;;
31910;SDS011;18457;52.432;16.914;2023-06-10T14:25:46;9.00;;;4.70;;
31910;SDS011;18457;52.432;16.914;2023-06-10T14:28:18;12.10;;;4.80;;
31910;SDS011;18457;52.432;16.914;2023-06-10T14:30:50;14.80;;;4.20;;
31910;SDS011;18457;52.432;16.914;2023-06-10T14:33:22;10.70;;;4.80;;
31910;SDS011;18457;52.432;16.914;2023-06-10T14:38:25;8.50;;;4.90;;
31910;SDS011;18457;52.432;16.914;2023-06-10T14:40:57;12.90;;;4.90;;
31910;SDS011;18457;52.432;16.914;2023-06-10T14:43:29;8.60;;;4.80;;
31910;SDS011;18457;52.432;16.914;2023-06-10T14:46:01;14.30;;;4.80;;
31910;SDS011;18457;52.432;16.914;2023-06-10T14:48:32;6.90;;;5.00;;
31910;SDS011;18457;52.432;16.914;2023-06-10T14:53:35;8.50;;;4.70;;
31910;SDS011;18457;52.432;16.914;2023-06-10T14:56:07;10.80;;;4.60;;
31910;SDS011;18457;52.432;16.914;2023-06-10T14:58:39;7.00;;;4.40;;
31910;SDS011;18457;52.432;16.914;2023-06-10T15:01:11;10.60;;;4.70;;
31910;SDS011;18457;52.432;16.914;2023-06-10T15:03:43;15.50;;;4.60;;
31910;SDS011;18457;52.432;16.914;2023-06-10T15:06:15;8.60;;;3.90;;
31910;SDS011;18457;52.432;16.914;2023-06-10T15:08:50;5.60;;;4.10;;
31910;SDS011;18457;52.432;16.914;2023-06-10T15:11:21;18.20;;;4.80;;
31910;SDS011;18457;52.432;16.914;2023-06-10T15:13:53;16.40;;;4.60;;
31910;SDS011;18457;52.432;16.914;2023-06-10T15:16:25;5.00;;;3.80;;
31910;SDS011;18457;52.432;16.914;2023-06-10T15:18:57;9.80;;;4.60;;
31910;SDS011;18457;52.432;16.914;2023-06-10T15:21:29;6.70;;;4.90;;